+03,Max TemperatureF,Mean TemperatureF,Min TemperatureF,Max Dew PointF,MeanDew PointF,Min DewpointF,Max Humidity, Mean Humidity, Min Humidity, Max Sea Level PressureIn, Mean Sea Level PressureIn, Min Sea Level PressureIn, Max VisibilityMiles, Mean VisibilityMiles, Min VisibilityMiles, Max Wind SpeedMPH, Mean Wind SpeedMPH, Max Gust SpeedMPH,PrecipitationIn, CloudCover, Events, WindDirDegrees
2013-6-1,110,96,81,75,57,37,66,33,8,29.62,29.57,29.53,6,6,6,14,6,,0.00,,,252
2013-6-2,104,94,84,72,58,39,58,33,10,29.61,29.56,29.53,6,4,2,85,9,14,0.00,,,319
2013-6-3,102,93,82,77,66,52,84,46,20,29.59,29.54,29.50,6,3,1,17,11,24,0.00,,,343
2013-6-4,96,88,81,77,74,63,84,65,36,29.68,29.61,29.53,4,4,3,9,6,,0.00,3,,49
2013-6-5,101,92,82,81,69,55,89,49,20,29.74,29.66,29.62,4,4,2,20,7,,0.00,,,356
2013-6-6,97,92,86,77,70,63,63,49,29,29.70,29.63,29.59,6,4,3,17,10,,0.00,,,339
2013-6-7,106,96,87,66,51,39,46,22,8,29.63,29.58,29.53,6,3,1,33,20,46,0.00,,,331
2013-6-8,100,93,86,59,51,41,36,25,7,29.59,29.54,29.50,5,4,2,26,21,47,0.00,,,321
2013-6-9,101,94,86,59,51,37,40,24,8,29.58,29.53,29.50,7,5,3,25,18,39,0.00,,,320
2013-6-10,107,98,89,68,45,34,31,17,5,29.53,29.49,29.44,6,4,3,24,16,37,0.00,,,316
2013-6-11,102,94,87,63,49,28,43,23,5,29.57,29.52,29.47,4,2,1,28,17,45,0.00,,,318
2013-6-12,100,94,87,61,47,32,40,22,5,29.55,29.49,29.44,6,5,2,25,16,41,0.00,,,318
2013-6-13,106,96,86,68,54,36,51,28,9,29.52,29.47,29.44,7,4,2,20,10,29,0.00,,,321
2013-6-14,104,94,84,77,61,45,74,38,10,29.50,29.46,29.44,6,6,6,10,6,,0.00,,,311
2013-6-15,103,92,82,73,64,54,55,38,22,29.49,29.45,29.42,6,2,1,16,7,,0.00,,,334
2013-6-16,106,98,89,64,54,45,40,25,8,29.48,29.43,29.42,6,4,2,22,15,34,0.00,,,321
2013-6-17,109,99,89,64,54,45,34,24,8,29.47,29.42,29.36,6,4,1,23,18,37,0.00,,,327
2013-6-18,107,99,91,64,51,37,41,21,7,29.46,29.42,29.36,10,8,6,26,17,37,0.00,,,336
2013-6-19,107,98,90,57,46,39,26,16,6,29.55,29.48,29.42,9,8,6,17,9,,0.00,,,336
2013-6-20,107,99,91,72,55,43,52,25,7,29.59,29.54,29.47,9,7,6,17,7,,0.00,,,335
2013-6-21,107,99,91,68,54,43,44,22,12,29.61,29.55,29.50,6,6,6,15,7,20,0.00,,,329
2013-6-22,111,101,91,73,53,43,47,21,7,29.57,29.53,29.50,9,7,6,16,7,,0.00,,,308
2013-6-23,105,97,89,75,57,45,53,26,11,29.55,29.51,29.47,7,7,7,20,9,24,0.00,,,335
2013-6-24,109,96,84,75,60,46,56,30,12,29.52,29.47,29.44,9,6,5,16,6,,0.00,,,327
2013-6-25,115,102,89,64,55,39,41,22,4,29.49,29.45,29.42,10,9,9,20,9,25,0.00,,,324
2013-6-26,111,103,95,68,58,48,37,24,13,29.53,29.49,29.44,9,8,7,23,9,,0.00,,,305
2013-6-27,112,102,92,68,52,39,41,20,5,29.56,29.50,29.47,7,6,6,21,9,,0.00,,,304
2013-6-28,112,102,93,72,50,32,49,21,4,29.50,29.45,29.42,7,5,4,18,8,33,0.00,,,255
2013-6-29,105,98,91,79,62,43,66,33,12,29.46,29.43,29.39,6,4,3,12,8,,0.00,,,113
2013-6-30,109,99,89,82,69,50,71,45,11,29.49,29.45,29.39,5,4,3,15,7,,0.00,,,137